MCO weather

Orlando International Airport
Orlando, Florida, United States

Public forecast

Using degrees Fahrenheit for public forecast. Weather courtesy of forecast.io.

METAR (pilot weather report)

Report is more than 2 hours old.

Retrieved 2018/10/17 03:53 UTC (2 hours ago):

KMCO 170353Z 10004KT 10SM CLR 25/23 A3013 RMK AO2 SLP203 T02500233

TAF (pilot weather forecast)

Forecast is more than 12 hours old.

Retrieved 2018/10/16 00:33 UTC (1 day ago):

TAF KMCO 162329Z 1700/1806 11009KT P6SM FEW050 FM170600 VRB02KT P6SM SCT015 FM171500 13007KT P6SM SCT035 FM172100 09007KT P6SM SCT040 FM180300 07002KT P6SM SKC